Mill Village, PA (16427)

2:07 AM EDT on August 31, 2016 (GMT -0400)
2 miles southeast of Mill Village | | Change Station

Elev 1572 ft 41.86 °N, 79.94 °W | Updated 4 minutes ago

Scattered Clouds
Scattered Clouds
67.4 °F
Feels Like 67.4 °F
N
0.0
Wind Variable Wind from SSE
Gusts 5.0 mph

Today
High -- | Low -- °F
--% Chance of Precip.
Yesterday
High -- | Low -- °F
Precip. -- in
Pressure 30.01 in
Visibility 10.0 miles
Clouds Scattered Clouds 10000 ft
Dew Point 62 °F
Humidity 83%
Rainfall 0.00 in
Snow Depth Not available.
6:45 AM 7:54 PM
Waning Crescent, 1% visible
METAR KERI 310551Z 19005KT 10SM SCT100 22/18 A3002 RMK AO2 SLP160 T02220178 10239 20217 58010
Pressure 30.01 in
Visibility 10.0 miles
Clouds Scattered Clouds 10000 ft
Dew Point 62 °F
Humidity 83%
Rainfall 0.00 in
Snow Depth Not available.
6:45 AM 7:54 PM
Waning Crescent, 1% visible
METAR KERI 310551Z 19005KT 10SM SCT100 22/18 A3002 RMK AO2 SLP160 T02220178 10239 20217 58010

10-Day Weather Forecast

Almanac

Astronomy

Aug. 31, 2016 Rise Set
Actual Time
Civil Twilight
Nautical Twilight
Astronomical Twilight
Moon
Length of Visible Light
Length of Day
Tomorrow will be .
, % of the Moon is Illuminated

Today's Extremes

State Highs State Lows

Community

WunderPhotos

Upload Photos

1,936,040 photos uploaded!

WunderBlog® & News

Nearby

Air Quality

  Air Quality AQ Index Pollutant
Not available.

Snow Depth

Station Depth Elevation

Earthquake Activity

City Distance Mag. Time & Date
Minimum magnitude displayed is 2.5.

Coastal Water Temperatures

Place Temperature

Stations

Nearby Weather Stations

Station Location Temp. Windchill Dew Point Humidity Wind Precip. Elev Updated Type
                   

Watches & Warnings

There are currently no watches in effect.